sensor_id;sensor_type;location;lat;lon;timestamp;P1;durP1;ratioP1;P2;durP2;ratioP2
20185;SDS011;10252;48.792;8.582;2023-04-24T00:02:28;3.97;;;1.58;;
20185;SDS011;10252;48.792;8.582;2023-04-24T00:07:30;2.65;;;1.70;;
20185;SDS011;10252;48.792;8.582;2023-04-24T00:12:31;1.75;;;1.38;;
20185;SDS011;10252;48.792;8.582;2023-04-24T00:17:32;1.75;;;1.42;;
20185;SDS011;10252;48.792;8.582;2023-04-24T00:22:33;2.38;;;1.40;;
20185;SDS011;10252;48.792;8.582;2023-04-24T00:27:34;4.45;;;2.05;;
20185;SDS011;10252;48.792;8.582;2023-04-24T00:32:37;3.17;;;1.90;;
20185;SDS011;10252;48.792;8.582;2023-04-24T00:37:38;3.35;;;2.33;;
20185;SDS011;10252;48.792;8.582;2023-04-24T00:42:39;3.10;;;1.73;;
20185;SDS011;10252;48.792;8.582;2023-04-24T00:47:41;4.07;;;1.90;;
20185;SDS011;10252;48.792;8.582;2023-04-24T00:52:42;3.40;;;2.13;;
20185;SDS011;10252;48.792;8.582;2023-04-24T00:57:44;2.15;;;1.95;;
20185;SDS011;10252;48.792;8.582;2023-04-24T01:02:45;2.90;;;1.83;;
20185;SDS011;10252;48.792;8.582;2023-04-24T01:07:47;2.72;;;1.55;;
20185;SDS011;10252;48.792;8.582;2023-04-24T01:12:49;2.55;;;1.50;;
20185;SDS011;10252;48.792;8.582;2023-04-24T01:17:50;2.90;;;1.45;;
20185;SDS011;10252;48.792;8.582;2023-04-24T01:22:52;6.97;;;2.05;;
20185;SDS011;10252;48.792;8.582;2023-04-24T01:27:53;4.97;;;2.00;;
20185;SDS011;10252;48.792;8.582;2023-04-24T01:32:54;2.88;;;1.80;;
20185;SDS011;10252;48.792;8.582;2023-04-24T01:37:56;2.20;;;1.77;;
20185;SDS011;10252;48.792;8.582;2023-04-24T01:42:58;5.10;;;2.40;;
20185;SDS011;10252;48.792;8.582;2023-04-24T01:48:00;4.43;;;1.90;;
20185;SDS011;10252;48.792;8.582;2023-04-24T01:53:02;2.95;;;1.70;;
20185;SDS011;10252;48.792;8.582;2023-04-24T01:58:03;1.80;;;1.42;;
20185;SDS011;10252;48.792;8.582;2023-04-24T02:03:04;3.15;;;1.52;;
20185;SDS011;10252;48.792;8.582;2023-04-24T02:08:05;4.53;;;1.65;;
20185;SDS011;10252;48.792;8.582;2023-04-24T02:13:10;3.50;;;1.60;;
20185;SDS011;10252;48.792;8.582;2023-04-24T02:18:11;2.92;;;1.25;;
20185;SDS011;10252;48.792;8.582;2023-04-24T02:23:12;3.78;;;1.30;;
20185;SDS011;10252;48.792;8.582;2023-04-24T02:28:14;3.45;;;1.50;;
20185;SDS011;10252;48.792;8.582;2023-04-24T02:33:15;1.92;;;0.93;;
20185;SDS011;10252;48.792;8.582;2023-04-24T02:38:16;2.88;;;0.73;;
20185;SDS011;10252;48.792;8.582;2023-04-24T02:43:17;1.10;;;0.90;;
20185;SDS011;10252;48.792;8.582;2023-04-24T02:48:18;2.72;;;0.80;;
20185;SDS011;10252;48.792;8.582;2023-04-24T02:53:20;2.83;;;0.75;;
20185;SDS011;10252;48.792;8.582;2023-04-24T02:58:22;4.05;;;1.20;;
20185;SDS011;10252;48.792;8.582;2023-04-24T03:03:23;1.00;;;0.70;;
20185;SDS011;10252;48.792;8.582;2023-04-24T03:08:25;3.97;;;1.20;;
20185;SDS011;10252;48.792;8.582;2023-04-24T03:13:26;1.30;;;0.75;;
20185;SDS011;10252;48.792;8.582;2023-04-24T03:18:27;3.67;;;1.10;;
20185;SDS011;10252;48.792;8.582;2023-04-24T03:23:28;1.48;;;0.95;;
20185;SDS011;10252;48.792;8.582;2023-04-24T03:28:29;2.55;;;1.20;;
20185;SDS011;10252;48.792;8.582;2023-04-24T03:33:36;1.33;;;1.15;;
20185;SDS011;10252;48.792;8.582;2023-04-24T03:38:37;1.70;;;1.15;;
20185;SDS011;10252;48.792;8.582;2023-04-24T03:43:58;2.25;;;1.33;;
20185;SDS011;10252;48.792;8.582;2023-04-24T03:49:00;1.23;;;1.08;;
20185;SDS011;10252;48.792;8.582;2023-04-24T03:54:05;1.92;;;1.30;;
20185;SDS011;10252;48.792;8.582;2023-04-24T03:59:09;2.15;;;1.20;;
20185;SDS011;10252;48.792;8.582;2023-04-24T04:04:11;1.45;;;1.20;;
20185;SDS011;10252;48.792;8.582;2023-04-24T04:09:13;2.00;;;1.42;;
20185;SDS011;10252;48.792;8.582;2023-04-24T04:14:14;1.67;;;1.20;;
20185;SDS011;10252;48.792;8.582;2023-04-24T04:19:19;7.03;;;2.92;;
20185;SDS011;10252;48.792;8.582;2023-04-24T04:24:21;1.58;;;1.40;;
20185;SDS011;10252;48.792;8.582;2023-04-24T04:29:22;1.55;;;1.42;;
20185;SDS011;10252;48.792;8.582;2023-04-24T04:34:25;2.75;;;1.70;;
20185;SDS011;10252;48.792;8.582;2023-04-24T04:39:26;5.25;;;2.17;;
20185;SDS011;10252;48.792;8.582;2023-04-24T04:44:33;2.30;;;1.70;;
20185;SDS011;10252;48.792;8.582;2023-04-24T04:49:40;5.25;;;1.95;;
20185;SDS011;10252;48.792;8.582;2023-04-24T04:54:48;3.03;;;2.40;;
20185;SDS011;10252;48.792;8.582;2023-04-24T04:59:50;6.45;;;2.83;;
20185;SDS011;10252;48.792;8.582;2023-04-24T05:05:02;2.85;;;2.53;;
20185;SDS011;10252;48.792;8.582;2023-04-24T05:10:04;5.55;;;2.58;;
20185;SDS011;10252;48.792;8.582;2023-04-24T05:15:05;4.45;;;2.45;;
20185;SDS011;10252;48.792;8.582;2023-04-24T05:20:07;3.53;;;2.45;;
20185;SDS011;10252;48.792;8.582;2023-04-24T05:25:10;4.88;;;2.58;;
20185;SDS011;10252;48.792;8.582;2023-04-24T05:30:25;4.82;;;2.22;;
20185;SDS011;10252;48.792;8.582;2023-04-24T05:35:27;2.67;;;2.42;;
20185;SDS011;10252;48.792;8.582;2023-04-24T05:40:28;5.35;;;2.13;;
20185;SDS011;10252;48.792;8.582;2023-04-24T05:45:30;2.80;;;2.53;;
20185;SDS011;10252;48.792;8.582;2023-04-24T05:50:31;3.92;;;1.88;;
20185;SDS011;10252;48.792;8.582;2023-04-24T05:55:33;4.05;;;2.17;;
20185;SDS011;10252;48.792;8.582;2023-04-24T06:00:35;1.80;;;1.60;;
20185;SDS011;10252;48.792;8.582;2023-04-24T06:05:40;2.33;;;2.00;;
20185;SDS011;10252;48.792;8.582;2023-04-24T06:10:42;3.55;;;2.20;;
20185;SDS011;10252;48.792;8.582;2023-04-24T06:15:44;3.53;;;1.98;;
20185;SDS011;10252;48.792;8.582;2023-04-24T06:20:54;3.13;;;2.10;;
20185;SDS011;10252;48.792;8.582;2023-04-24T06:25:57;7.45;;;2.70;;
20185;SDS011;10252;48.792;8.582;2023-04-24T06:30:58;3.00;;;1.92;;
20185;SDS011;10252;48.792;8.582;2023-04-24T06:35:59;2.40;;;2.17;;
20185;SDS011;10252;48.792;8.582;2023-04-24T06:41:00;3.75;;;2.25;;
20185;SDS011;10252;48.792;8.582;2023-04-24T06:46:01;4.00;;;3.25;;
20185;SDS011;10252;48.792;8.582;2023-04-24T06:51:03;3.90;;;2.25;;
20185;SDS011;10252;48.792;8.582;2023-04-24T06:56:04;2.45;;;1.88;;
20185;SDS011;10252;48.792;8.582;2023-04-24T07:01:05;2.10;;;1.63;;
20185;SDS011;10252;48.792;8.582;2023-04-24T07:06:06;3.15;;;1.73;;
20185;SDS011;10252;48.792;8.582;2023-04-24T07:11:07;2.60;;;2.15;;
20185;SDS011;10252;48.792;8.582;2023-04-24T07:16:08;1.90;;;1.70;;
20185;SDS011;10252;48.792;8.582;2023-04-24T07:21:10;2.70;;;1.83;;
20185;SDS011;10252;48.792;8.582;2023-04-24T07:26:12;2.28;;;1.67;;
20185;SDS011;10252;48.792;8.582;2023-04-24T07:31:14;2.40;;;1.50;;
20185;SDS011;10252;48.792;8.582;2023-04-24T07:36:15;1.85;;;1.50;;
20185;SDS011;10252;48.792;8.582;2023-04-24T07:41:18;4.40;;;2.25;;
20185;SDS011;10252;48.792;8.582;2023-04-24T07:46:20;2.88;;;2.20;;
20185;SDS011;10252;48.792;8.582;2023-04-24T07:51:23;2.42;;;2.00;;
20185;SDS011;10252;48.792;8.582;2023-04-24T07:56:24;2.47;;;1.90;;
20185;SDS011;10252;48.792;8.582;2023-04-24T08:01:25;4.45;;;2.42;;
20185;SDS011;10252;48.792;8.582;2023-04-24T08:06:26;2.92;;;1.60;;
20185;SDS011;10252;48.792;8.582;2023-04-24T08:11:31;2.90;;;1.50;;
20185;SDS011;10252;48.792;8.582;2023-04-24T08:16:32;3.65;;;2.17;;
20185;SDS011;10252;48.792;8.582;2023-04-24T08:21:34;3.22;;;1.95;;
20185;SDS011;10252;48.792;8.582;2023-04-24T08:26:35;5.47;;;1.95;;
20185;SDS011;10252;48.792;8.582;2023-04-24T08:31:36;2.50;;;1.50;;
20185;SDS011;10252;48.792;8.582;2023-04-24T08:36:37;1.63;;;1.40;;
20185;SDS011;10252;48.792;8.582;2023-04-24T08:41:41;4.50;;;1.90;;
20185;SDS011;10252;48.792;8.582;2023-04-24T08:46:46;3.00;;;1.60;;
20185;SDS011;10252;48.792;8.582;2023-04-24T08:51:48;2.55;;;1.50;;
20185;SDS011;10252;48.792;8.582;2023-04-24T08:56:49;2.00;;;1.40;;
20185;SDS011;10252;48.792;8.582;2023-04-24T09:01:51;1.67;;;1.20;;
20185;SDS011;10252;48.792;8.582;2023-04-24T09:06:55;3.47;;;1.67;;
20185;SDS011;10252;48.792;8.582;2023-04-24T09:11:56;3.88;;;1.90;;
20185;SDS011;10252;48.792;8.582;2023-04-24T09:16:58;2.58;;;1.60;;
20185;SDS011;10252;48.792;8.582;2023-04-24T09:21:59;3.67;;;1.50;;
20185;SDS011;10252;48.792;8.582;2023-04-24T09:27:00;5.82;;;2.00;;
20185;SDS011;10252;48.792;8.582;2023-04-24T09:32:17;2.10;;;1.60;;
20185;SDS011;10252;48.792;8.582;2023-04-24T09:37:28;2.75;;;1.52;;
20185;SDS011;10252;48.792;8.582;2023-04-24T09:42:29;1.90;;;0.98;;
20185;SDS011;10252;48.792;8.582;2023-04-24T09:47:38;1.88;;;1.70;;
20185;SDS011;10252;48.792;8.582;2023-04-24T09:52:40;3.03;;;1.40;;
20185;SDS011;10252;48.792;8.582;2023-04-24T09:57:55;3.33;;;1.83;;
20185;SDS011;10252;48.792;8.582;2023-04-24T10:08:01;2.70;;;1.60;;
20185;SDS011;10252;48.792;8.582;2023-04-24T10:13:02;1.42;;;1.30;;
20185;SDS011;10252;48.792;8.582;2023-04-24T10:18:05;2.67;;;1.50;;
20185;SDS011;10252;48.792;8.582;2023-04-24T10:23:06;1.95;;;1.23;;
20185;SDS011;10252;48.792;8.582;2023-04-24T10:28:07;1.85;;;1.25;;
20185;SDS011;10252;48.792;8.582;2023-04-24T10:33:10;2.22;;;1.50;;
20185;SDS011;10252;48.792;8.582;2023-04-24T10:38:13;1.40;;;1.10;;
20185;SDS011;10252;48.792;8.582;2023-04-24T10:43:16;2.83;;;1.58;;
20185;SDS011;10252;48.792;8.582;2023-04-24T10:48:17;2.40;;;1.40;;
20185;SDS011;10252;48.792;8.582;2023-04-24T10:53:19;1.35;;;1.20;;
20185;SDS011;10252;48.792;8.582;2023-04-24T10:58:24;2.50;;;2.13;;
20185;SDS011;10252;48.792;8.582;2023-04-24T11:03:29;1.70;;;1.60;;
20185;SDS011;10252;48.792;8.582;2023-04-24T11:08:31;2.58;;;2.00;;
20185;SDS011;10252;48.792;8.582;2023-04-24T11:18:57;3.13;;;1.52;;
20185;SDS011;10252;48.792;8.582;2023-04-24T11:24:21;1.70;;;1.42;;
20185;SDS011;10252;48.792;8.582;2023-04-24T11:29:21;2.72;;;1.55;;
20185;SDS011;10252;48.792;8.582;2023-04-24T11:34:22;1.83;;;1.30;;
20185;SDS011;10252;48.792;8.582;2023-04-24T11:39:23;1.75;;;1.35;;
20185;SDS011;10252;48.792;8.582;2023-04-24T11:44:24;1.83;;;1.40;;
20185;SDS011;10252;48.792;8.582;2023-04-24T11:49:25;1.70;;;1.50;;
20185;SDS011;10252;48.792;8.582;2023-04-24T11:54:26;2.90;;;1.63;;
20185;SDS011;10252;48.792;8.582;2023-04-24T11:59:27;2.08;;;1.73;;
20185;SDS011;10252;48.792;8.582;2023-04-24T12:04:37;2.10;;;1.50;;
20185;SDS011;10252;48.792;8.582;2023-04-24T12:09:46;1.70;;;1.48;;
20185;SDS011;10252;48.792;8.582;2023-04-24T12:19:48;1.80;;;1.58;;
20185;SDS011;10252;48.792;8.582;2023-04-24T12:25:03;3.90;;;1.58;;
20185;SDS011;10252;48.792;8.582;2023-04-24T12:30:05;2.53;;;1.90;;
20185;SDS011;10252;48.792;8.582;2023-04-24T12:35:07;2.85;;;1.92;;
20185;SDS011;10252;48.792;8.582;2023-04-24T12:40:09;5.93;;;2.38;;
20185;SDS011;10252;48.792;8.582;2023-04-24T12:45:11;4.45;;;2.67;;
20185;SDS011;10252;48.792;8.582;2023-04-24T12:50:13;3.75;;;2.45;;
20185;SDS011;10252;48.792;8.582;2023-04-24T12:55:14;6.00;;;2.47;;
20185;SDS011;10252;48.792;8.582;2023-04-24T13:00:16;2.83;;;2.47;;
20185;SDS011;10252;48.792;8.582;2023-04-24T13:05:17;4.13;;;2.80;;
20185;SDS011;10252;48.792;8.582;2023-04-24T13:10:18;3.45;;;2.60;;
20185;SDS011;10252;48.792;8.582;2023-04-24T13:15:19;2.40;;;2.20;;
20185;SDS011;10252;48.792;8.582;2023-04-24T13:20:20;2.30;;;2.10;;
20185;SDS011;10252;48.792;8.582;2023-04-24T13:25:21;3.55;;;2.60;;
20185;SDS011;10252;48.792;8.582;2023-04-24T13:30:23;2.90;;;2.38;;
20185;SDS011;10252;48.792;8.582;2023-04-24T13:35:24;7.15;;;6.25;;
20185;SDS011;10252;48.792;8.582;2023-04-24T13:40:25;3.20;;;2.60;;
20185;SDS011;10252;48.792;8.582;2023-04-24T13:45:26;4.75;;;2.90;;
20185;SDS011;10252;48.792;8.582;2023-04-24T13:50:27;4.03;;;2.35;;
20185;SDS011;10252;48.792;8.582;2023-04-24T13:55:28;3.03;;;2.53;;
20185;SDS011;10252;48.792;8.582;2023-04-24T14:00:29;5.03;;;2.13;;
20185;SDS011;10252;48.792;8.582;2023-04-24T14:05:31;3.70;;;2.40;;
20185;SDS011;10252;48.792;8.582;2023-04-24T14:10:32;2.53;;;2.10;;
20185;SDS011;10252;48.792;8.582;2023-04-24T14:15:33;3.47;;;2.60;;
20185;SDS011;10252;48.792;8.582;2023-04-24T14:20:34;3.75;;;2.92;;
20185;SDS011;10252;48.792;8.582;2023-04-24T14:25:35;4.78;;;2.50;;
20185;SDS011;10252;48.792;8.582;2023-04-24T14:30:36;5.65;;;3.33;;
20185;SDS011;10252;48.792;8.582;2023-04-24T14:35:37;2.95;;;2.08;;
20185;SDS011;10252;48.792;8.582;2023-04-24T14:40:38;5.93;;;3.00;;
20185;SDS011;10252;48.792;8.582;2023-04-24T14:45:39;4.90;;;2.60;;
20185;SDS011;10252;48.792;8.582;2023-04-24T14:50:41;2.92;;;2.08;;
20185;SDS011;10252;48.792;8.582;2023-04-24T14:55:42;2.90;;;1.80;;
20185;SDS011;10252;48.792;8.582;2023-04-24T15:00:43;2.22;;;1.70;;
20185;SDS011;10252;48.792;8.582;2023-04-24T15:05:44;2.30;;;2.10;;
20185;SDS011;10252;48.792;8.582;2023-04-24T15:10:46;2.80;;;2.40;;
20185;SDS011;10252;48.792;8.582;2023-04-24T15:15:47;4.15;;;2.00;;
20185;SDS011;10252;48.792;8.582;2023-04-24T15:20:48;3.38;;;2.40;;
20185;SDS011;10252;48.792;8.582;2023-04-24T15:25:49;2.95;;;1.50;;
20185;SDS011;10252;48.792;8.582;2023-04-24T15:30:51;3.85;;;2.22;;
20185;SDS011;10252;48.792;8.582;2023-04-24T15:35:52;1.98;;;1.80;;
20185;SDS011;10252;48.792;8.582;2023-04-24T15:40:53;2.45;;;2.00;;
20185;SDS011;10252;48.792;8.582;2023-04-24T15:45:54;1.75;;;1.45;;
20185;SDS011;10252;48.792;8.582;2023-04-24T15:50:55;2.47;;;2.05;;
20185;SDS011;10252;48.792;8.582;2023-04-24T15:55:56;2.25;;;1.60;;
20185;SDS011;10252;48.792;8.582;2023-04-24T16:00:57;3.05;;;1.98;;
20185;SDS011;10252;48.792;8.582;2023-04-24T16:05:58;2.55;;;2.00;;
20185;SDS011;10252;48.792;8.582;2023-04-24T16:11:01;2.33;;;1.52;;
20185;SDS011;10252;48.792;8.582;2023-04-24T16:16:02;1.40;;;1.30;;
20185;SDS011;10252;48.792;8.582;2023-04-24T16:21:03;1.35;;;1.13;;
20185;SDS011;10252;48.792;8.582;2023-04-24T16:26:04;3.47;;;1.85;;
20185;SDS011;10252;48.792;8.582;2023-04-24T16:31:05;1.25;;;1.15;;
20185;SDS011;10252;48.792;8.582;2023-04-24T16:36:06;1.50;;;1.38;;
20185;SDS011;10252;48.792;8.582;2023-04-24T16:41:08;6.18;;;1.30;;
20185;SDS011;10252;48.792;8.582;2023-04-24T16:46:09;4.55;;;2.10;;
20185;SDS011;10252;48.792;8.582;2023-04-24T16:51:10;1.63;;;1.17;;
20185;SDS011;10252;48.792;8.582;2023-04-24T16:56:11;1.90;;;1.70;;
20185;SDS011;10252;48.792;8.582;2023-04-24T17:01:13;2.00;;;1.30;;
20185;SDS011;10252;48.792;8.582;2023-04-24T17:06:14;3.60;;;1.75;;
20185;SDS011;10252;48.792;8.582;2023-04-24T17:11:15;3.00;;;1.48;;
20185;SDS011;10252;48.792;8.582;2023-04-24T17:16:16;2.13;;;1.40;;
20185;SDS011;10252;48.792;8.582;2023-04-24T17:21:17;2.38;;;1.40;;
20185;SDS011;10252;48.792;8.582;2023-04-24T17:26:19;5.00;;;1.88;;
20185;SDS011;10252;48.792;8.582;2023-04-24T17:31:20;3.35;;;1.85;;
20185;SDS011;10252;48.792;8.582;2023-04-24T17:36:22;1.42;;;1.33;;
20185;SDS011;10252;48.792;8.582;2023-04-24T17:41:23;1.65;;;1.50;;
20185;SDS011;10252;48.792;8.582;2023-04-24T17:46:24;4.22;;;1.80;;
20185;SDS011;10252;48.792;8.582;2023-04-24T17:51:25;3.03;;;2.00;;
20185;SDS011;10252;48.792;8.582;2023-04-24T17:56:26;2.28;;;2.00;;
20185;SDS011;10252;48.792;8.582;2023-04-24T18:01:27;2.95;;;1.80;;
20185;SDS011;10252;48.792;8.582;2023-04-24T18:06:29;3.50;;;1.83;;
20185;SDS011;10252;48.792;8.582;2023-04-24T18:11:30;4.28;;;2.33;;
20185;SDS011;10252;48.792;8.582;2023-04-24T18:16:32;3.40;;;2.13;;
20185;SDS011;10252;48.792;8.582;2023-04-24T18:21:33;2.65;;;2.45;;
20185;SDS011;10252;48.792;8.582;2023-04-24T18:26:34;3.25;;;2.28;;
20185;SDS011;10252;48.792;8.582;2023-04-24T18:31:35;2.92;;;1.60;;
20185;SDS011;10252;48.792;8.582;2023-04-24T18:36:36;3.75;;;3.00;;
20185;SDS011;10252;48.792;8.582;2023-04-24T18:41:37;3.80;;;2.30;;
20185;SDS011;10252;48.792;8.582;2023-04-24T18:46:38;2.47;;;2.10;;
20185;SDS011;10252;48.792;8.582;2023-04-24T18:51:40;3.83;;;2.65;;
20185;SDS011;10252;48.792;8.582;2023-04-24T18:56:41;2.80;;;2.00;;
20185;SDS011;10252;48.792;8.582;2023-04-24T19:01:42;3.08;;;2.10;;
20185;SDS011;10252;48.792;8.582;2023-04-24T19:06:43;2.85;;;2.50;;
20185;SDS011;10252;48.792;8.582;2023-04-24T19:11:44;5.00;;;3.10;;
20185;SDS011;10252;48.792;8.582;2023-04-24T19:16:46;3.17;;;2.70;;
20185;SDS011;10252;48.792;8.582;2023-04-24T19:21:47;4.70;;;3.13;;
20185;SDS011;10252;48.792;8.582;2023-04-24T19:26:49;6.03;;;3.90;;
20185;SDS011;10252;48.792;8.582;2023-04-24T19:31:50;4.55;;;3.38;;
20185;SDS011;10252;48.792;8.582;2023-04-24T19:36:53;5.00;;;3.95;;
20185;SDS011;10252;48.792;8.582;2023-04-24T19:41:54;6.75;;;5.15;;
20185;SDS011;10252;48.792;8.582;2023-04-24T19:46:56;20.52;;;15.45;;
20185;SDS011;10252;48.792;8.582;2023-04-24T19:51:57;9.52;;;6.38;;
20185;SDS011;10252;48.792;8.582;2023-04-24T19:56:58;8.02;;;5.72;;
20185;SDS011;10252;48.792;8.582;2023-04-24T20:01:59;6.65;;;5.20;;
20185;SDS011;10252;48.792;8.582;2023-04-24T20:07:00;25.05;;;14.15;;
20185;SDS011;10252;48.792;8.582;2023-04-24T20:12:01;7.80;;;4.80;;
20185;SDS011;10252;48.792;8.582;2023-04-24T20:17:02;7.32;;;4.82;;
20185;SDS011;10252;48.792;8.582;2023-04-24T20:22:04;6.70;;;4.38;;
20185;SDS011;10252;48.792;8.582;2023-04-24T20:27:05;6.55;;;4.88;;
20185;SDS011;10252;48.792;8.582;2023-04-24T20:32:06;6.07;;;4.72;;
20185;SDS011;10252;48.792;8.582;2023-04-24T20:37:07;5.78;;;4.70;;
20185;SDS011;10252;48.792;8.582;2023-04-24T20:42:08;4.28;;;3.13;;
20185;SDS011;10252;48.792;8.582;2023-04-24T20:47:10;3.50;;;3.20;;
20185;SDS011;10252;48.792;8.582;2023-04-24T20:52:11;7.43;;;3.55;;
20185;SDS011;10252;48.792;8.582;2023-04-24T20:57:12;4.00;;;3.20;;
20185;SDS011;10252;48.792;8.582;2023-04-24T21:02:13;5.07;;;3.28;;
20185;SDS011;10252;48.792;8.582;2023-04-24T21:07:14;7.15;;;4.22;;
20185;SDS011;10252;48.792;8.582;2023-04-24T21:12:16;6.13;;;3.70;;
20185;SDS011;10252;48.792;8.582;2023-04-24T21:17:17;7.38;;;3.65;;
20185;SDS011;10252;48.792;8.582;2023-04-24T21:22:18;6.30;;;4.55;;
20185;SDS011;10252;48.792;8.582;2023-04-24T21:27:20;4.93;;;3.88;;
20185;SDS011;10252;48.792;8.582;2023-04-24T21:32:21;5.40;;;4.75;;
20185;SDS011;10252;48.792;8.582;2023-04-24T21:37:22;5.35;;;4.25;;
20185;SDS011;10252;48.792;8.582;2023-04-24T21:42:23;6.45;;;4.32;;
20185;SDS011;10252;48.792;8.582;2023-04-24T21:47:25;4.75;;;4.07;;
20185;SDS011;10252;48.792;8.582;2023-04-24T21:52:26;3.50;;;3.20;;
20185;SDS011;10252;48.792;8.582;2023-04-24T21:57:27;5.57;;;3.95;;
20185;SDS011;10252;48.792;8.582;2023-04-24T22:02:28;5.32;;;4.15;;
20185;SDS011;10252;48.792;8.582;2023-04-24T22:07:31;6.65;;;4.40;;
20185;SDS011;10252;48.792;8.582;2023-04-24T22:12:35;5.38;;;4.03;;
20185;SDS011;10252;48.792;8.582;2023-04-24T22:17:48;8.13;;;4.50;;
20185;SDS011;10252;48.792;8.582;2023-04-24T22:23:09;7.45;;;5.07;;
20185;SDS011;10252;48.792;8.582;2023-04-24T22:28:10;4.43;;;3.47;;
20185;SDS011;10252;48.792;8.582;2023-04-24T22:33:11;4.07;;;3.03;;
20185;SDS011;10252;48.792;8.582;2023-04-24T22:38:12;3.78;;;3.03;;
20185;SDS011;10252;48.792;8.582;2023-04-24T22:43:13;2.90;;;2.50;;
20185;SDS011;10252;48.792;8.582;2023-04-24T22:48:16;5.22;;;2.90;;
20185;SDS011;10252;48.792;8.582;2023-04-24T22:53:17;3.05;;;2.75;;
20185;SDS011;10252;48.792;8.582;2023-04-24T22:58:19;3.17;;;2.60;;
20185;SDS011;10252;48.792;8.582;2023-04-24T23:03:20;5.45;;;2.70;;
20185;SDS011;10252;48.792;8.582;2023-04-24T23:08:21;4.47;;;2.55;;
20185;SDS011;10252;48.792;8.582;2023-04-24T23:13:22;3.80;;;2.95;;
20185;SDS011;10252;48.792;8.582;2023-04-24T23:18:23;5.43;;;3.20;;
20185;SDS011;10252;48.792;8.582;2023-04-24T23:23:24;3.10;;;2.70;;
20185;SDS011;10252;48.792;8.582;2023-04-24T23:28:25;5.28;;;3.08;;
20185;SDS011;10252;48.792;8.582;2023-04-24T23:33:26;8.73;;;3.05;;
20185;SDS011;10252;48.792;8.582;2023-04-24T23:38:27;4.28;;;2.70;;
20185;SDS011;10252;48.792;8.582;2023-04-24T23:43:28;3.53;;;3.05;;
20185;SDS011;10252;48.792;8.582;2023-04-24T23:48:29;4.20;;;3.33;;
20185;SDS011;10252;48.792;8.582;2023-04-24T23:53:30;3.75;;;2.83;;
20185;SDS011;10252;48.792;8.582;2023-04-24T23:58:31;5.57;;;3.50;;
